Terminal Aerodrome Forecast
Issued by NWS

Home | Current Version | Previous Version | Text Only | Print | Product List | Glossary On
Versions: 1 2 3 4 5 6 7 8 9 10 11 12 13 14 15 16 17 18 19 20
000
FTUS43 KGRB 211423 AAA
TAFRHI
TAF AMD
KRHI 211423Z 2114/2212 29017G27KT P6SM -SHSN SCT025 OVC035
      TEMPO 2114/2116 2SM -SHSN BKN025
     FM211600 31014G24KT P6SM -SHSN OVC024
     FM220000 31009G15KT P6SM -SHSN BKN023
     FM220200 30007KT P6SM -SHSN BKN021
     FM220800 29005KT P6SM SCT022=

USA.gov is the U.S. government's official web portal to all federal, state and local government web resources and services.